createdAt,value
2017-05-22T00:01:17.155Z,12.68
2017-05-22T00:03:43.491Z,12.84
2017-05-22T00:06:09.844Z,13.54
2017-05-22T00:08:36.219Z,13.98
2017-05-22T00:11:02.585Z,13.70
2017-05-22T00:13:29.170Z,12.21
2017-05-22T00:15:55.525Z,12.21
2017-05-22T00:18:22.019Z,12.18
2017-05-22T00:20:48.537Z,12.11
2017-05-22T00:23:15.097Z,11.98
2017-05-22T00:25:41.579Z,12.09
2017-05-22T00:28:08.282Z,12.67
2017-05-22T00:30:34.659Z,12.55
2017-05-22T00:33:01.094Z,12.00
2017-05-22T00:35:31.892Z,11.36
2017-05-22T00:37:58.800Z,11.06
2017-05-22T00:40:25.233Z,11.98
2017-05-22T00:42:52.176Z,12.32
2017-05-22T00:45:18.592Z,13.22
2017-05-22T00:47:44.929Z,12.41
2017-05-22T00:50:11.268Z,12.89
2017-05-22T00:52:37.663Z,11.90
2017-05-22T00:55:04.041Z,12.20
2017-05-22T00:57:30.433Z,11.57
2017-05-22T00:59:56.773Z,11.97
2017-05-22T01:02:23.100Z,13.11
2017-05-22T01:04:49.518Z,13.33
2017-05-22T01:07:15.879Z,12.28
2017-05-22T01:09:42.230Z,11.96
2017-05-22T01:12:08.598Z,11.86
2017-05-22T01:14:34.939Z,12.12
2017-05-22T01:17:01.267Z,11.96
2017-05-22T01:19:27.751Z,12.00
2017-05-22T01:21:54.152Z,11.82
2017-05-22T01:24:20.493Z,11.62
2017-05-22T01:26:47.120Z,11.58
2017-05-22T01:29:13.468Z,12.37
2017-05-22T01:31:39.845Z,12.77
2017-05-22T01:34:06.202Z,12.53
2017-05-22T01:36:32.633Z,12.16
2017-05-22T01:38:58.971Z,12.30
2017-05-22T01:41:25.333Z,12.61
2017-05-22T01:43:51.684Z,12.26
2017-05-22T01:46:18.057Z,12.04
2017-05-22T01:48:44.391Z,12.66
2017-05-22T01:51:11.238Z,12.83
2017-05-22T01:53:37.608Z,12.10
2017-05-22T01:56:03.971Z,12.42
2017-05-22T01:58:30.288Z,12.29
2017-05-22T02:00:56.657Z,13.13
2017-05-22T02:03:23.001Z,12.16
2017-05-22T02:05:49.334Z,12.66
2017-05-22T02:08:15.670Z,12.51
2017-05-22T02:10:42.004Z,12.09
2017-05-22T02:13:08.361Z,12.81
2017-05-22T02:15:34.701Z,11.87
2017-05-22T02:18:01.043Z,11.46
2017-05-22T02:20:27.400Z,12.03
2017-05-22T02:22:53.751Z,11.89
2017-05-22T02:25:20.109Z,11.47
2017-05-22T02:27:46.493Z,11.49
2017-05-22T02:30:12.868Z,11.94
2017-05-22T02:32:39.235Z,11.61
2017-05-22T02:35:05.616Z,11.10
2017-05-22T02:37:32.016Z,11.39
2017-05-22T02:39:58.378Z,12.39
2017-05-22T02:42:24.817Z,11.86
2017-05-22T02:44:51.172Z,11.65
2017-05-22T02:47:17.526Z,12.56
2017-05-22T02:49:43.872Z,12.02
2017-05-22T02:52:10.201Z,11.52
2017-05-22T02:54:36.559Z,11.19
2017-05-22T02:57:03.123Z,11.17
2017-05-22T02:59:29.469Z,11.33
2017-05-22T03:01:55.834Z,11.07
2017-05-22T03:04:22.147Z,11.01
2017-05-22T03:06:48.486Z,11.27
2017-05-22T03:09:14.810Z,11.22
2017-05-22T03:11:41.148Z,10.81
2017-05-22T03:14:07.486Z,10.75
2017-05-22T03:16:33.828Z,10.87
2017-05-22T03:19:00.161Z,11.26
2017-05-22T03:21:26.539Z,11.67
2017-05-22T03:23:52.868Z,11.10
2017-05-22T03:26:19.197Z,11.25
2017-05-22T03:28:45.577Z,10.40
2017-05-22T03:31:11.954Z,10.30
2017-05-22T03:33:38.288Z,10.95
2017-05-22T03:36:04.702Z,10.68
2017-05-22T03:38:31.138Z,10.91
2017-05-22T03:40:57.490Z,10.91
2017-05-22T03:43:23.853Z,11.28
2017-05-22T03:45:50.212Z,11.51
2017-05-22T03:48:16.604Z,11.39
2017-05-22T03:50:42.969Z,10.80
2017-05-22T03:53:09.645Z,11.01
2017-05-22T03:55:36.404Z,10.20
2017-05-22T03:58:02.760Z,10.09
2017-05-22T04:00:29.084Z,10.10
2017-05-22T04:02:55.448Z,10.16
2017-05-22T04:05:21.814Z,10.60
2017-05-22T04:07:48.165Z,10.28
2017-05-22T04:10:14.534Z,10.33
2017-05-22T04:12:40.860Z,10.16
2017-05-22T04:15:07.201Z,10.49
2017-05-22T04:17:33.538Z,10.19
2017-05-22T04:19:59.888Z,10.35
2017-05-22T04:22:26.258Z,10.24
2017-05-22T04:24:52.624Z,10.42
2017-05-22T04:27:18.953Z,10.33
2017-05-22T04:29:45.316Z,10.45
2017-05-22T04:32:11.680Z,10.45
2017-05-22T04:34:38.079Z,10.43
2017-05-22T04:37:04.458Z,10.75
2017-05-22T04:39:30.831Z,10.71
2017-05-22T04:41:57.173Z,10.71
2017-05-22T04:44:23.573Z,10.61
2017-05-22T04:46:49.928Z,10.70
2017-05-22T04:49:16.303Z,10.58
2017-05-22T04:51:42.668Z,10.97
2017-05-22T04:54:09.067Z,11.01
2017-05-22T04:56:35.434Z,11.15
2017-05-22T04:59:01.752Z,11.31
2017-05-22T05:01:28.101Z,11.95
2017-05-22T05:03:54.470Z,11.85
2017-05-22T05:06:20.815Z,11.76
2017-05-22T05:08:47.177Z,11.43
2017-05-22T05:11:13.533Z,11.23
2017-05-22T05:13:39.918Z,11.45
2017-05-22T05:16:06.255Z,11.70
2017-05-22T05:18:32.598Z,11.58
2017-05-22T05:20:58.927Z,11.50
2017-05-22T05:23:25.359Z,11.55
2017-05-22T05:25:51.681Z,11.67
2017-05-22T05:28:18.026Z,11.69
2017-05-22T05:30:44.413Z,11.83
2017-05-22T05:33:10.754Z,11.92
2017-05-22T05:35:37.101Z,12.18
2017-05-22T05:38:03.474Z,12.13
2017-05-22T05:40:29.829Z,12.34
2017-05-22T05:42:56.260Z,12.28
2017-05-22T05:45:22.617Z,12.42
2017-05-22T05:47:48.955Z,12.39
2017-05-22T05:50:15.357Z,12.38
2017-05-22T05:52:41.712Z,12.62
2017-05-22T05:55:08.079Z,12.65
2017-05-22T05:57:34.414Z,12.98
2017-05-22T06:00:00.797Z,12.96
2017-05-22T06:02:27.168Z,13.18
2017-05-22T06:04:53.547Z,13.32
2017-05-22T06:07:19.910Z,13.60
2017-05-22T06:09:46.295Z,13.43
2017-05-22T06:12:13.075Z,13.38
2017-05-22T06:14:39.426Z,13.60
2017-05-22T06:17:05.777Z,13.49
2017-05-22T06:19:32.112Z,13.92
2017-05-22T06:21:58.447Z,13.95
2017-05-22T06:24:24.793Z,13.92
2017-05-22T06:26:51.154Z,14.11
2017-05-22T06:29:17.467Z,14.33
2017-05-22T06:31:43.795Z,14.34
2017-05-22T06:34:10.149Z,14.28
2017-05-22T06:36:36.482Z,14.36
2017-05-22T06:39:02.944Z,14.45
2017-05-22T06:41:29.281Z,15.21
2017-05-22T06:43:55.603Z,16.25
2017-05-22T06:46:21.965Z,16.51
2017-05-22T06:48:48.246Z,16.44
2017-05-22T06:51:14.579Z,16.77
2017-05-22T06:53:40.891Z,16.45
2017-05-22T06:56:07.200Z,16.41
2017-05-22T06:58:33.511Z,17.56
2017-05-22T07:00:59.844Z,17.05
2017-05-22T07:03:26.189Z,16.77
2017-05-22T07:05:52.522Z,17.05
2017-05-22T07:08:18.859Z,17.02
2017-05-22T07:10:45.174Z,17.97
2017-05-22T07:13:11.509Z,17.98
2017-05-22T07:15:37.846Z,17.90
2017-05-22T07:18:04.148Z,18.30
2017-05-22T07:20:30.478Z,18.37
2017-05-22T07:22:56.816Z,18.42
2017-05-22T07:25:23.173Z,18.46
2017-05-22T07:27:49.500Z,18.81
2017-05-22T07:30:15.822Z,18.70
2017-05-22T07:32:42.131Z,19.18
2017-05-22T07:35:08.445Z,18.88
2017-05-22T07:37:34.791Z,19.11
2017-05-22T07:40:01.116Z,19.22
2017-05-22T07:42:27.921Z,19.00
2017-05-22T07:44:54.252Z,19.00
2017-05-22T07:47:20.577Z,18.98
2017-05-22T07:49:46.894Z,18.85
2017-05-22T07:52:13.206Z,19.08
2017-05-22T07:54:39.517Z,19.22
2017-05-22T07:57:05.887Z,19.61
2017-05-22T07:59:32.239Z,19.94
2017-05-22T08:01:58.594Z,19.98
2017-05-22T08:04:24.953Z,19.52
2017-05-22T08:06:51.322Z,20.19
2017-05-22T08:09:17.685Z,20.19
2017-05-22T08:11:44.008Z,19.98
2017-05-22T08:14:10.347Z,20.10
2017-05-22T08:16:36.664Z,20.00
2017-05-22T08:19:02.967Z,20.65
2017-05-22T08:21:29.291Z,20.36
2017-05-22T08:23:55.587Z,20.60
2017-05-22T08:26:21.923Z,20.64
2017-05-22T08:28:48.235Z,20.94
2017-05-22T08:31:14.556Z,21.17
2017-05-22T08:33:40.896Z,21.49
2017-05-22T08:36:07.229Z,21.21
2017-05-22T08:38:33.574Z,21.57
2017-05-22T08:40:59.888Z,21.93
2017-05-22T08:43:26.220Z,21.75
2017-05-22T08:45:52.577Z,22.02
2017-05-22T08:48:18.909Z,21.67
2017-05-22T08:50:45.223Z,21.61
2017-05-22T08:53:11.582Z,22.12
2017-05-22T08:55:37.949Z,22.21
2017-05-22T08:58:04.266Z,22.27
2017-05-22T09:00:30.591Z,21.89
2017-05-22T09:02:56.898Z,21.88
2017-05-22T09:05:23.255Z,21.76
2017-05-22T09:07:49.590Z,21.48
2017-05-22T09:10:16.016Z,21.86
2017-05-22T09:12:42.347Z,21.64
2017-05-22T09:15:08.705Z,21.96
2017-05-22T09:17:35.054Z,21.63
2017-05-22T09:20:01.416Z,21.70
2017-05-22T09:22:27.753Z,21.57
2017-05-22T09:24:54.076Z,21.99
2017-05-22T09:27:20.426Z,23.14
2017-05-22T09:29:46.771Z,22.32
2017-05-22T09:32:13.113Z,22.19
2017-05-22T09:34:39.548Z,22.26
2017-05-22T09:37:05.929Z,21.96
2017-05-22T09:39:32.268Z,21.69
2017-05-22T09:41:58.637Z,21.97
2017-05-22T09:44:24.967Z,22.52
2017-05-22T09:46:51.303Z,22.84
2017-05-22T09:49:17.642Z,22.88
2017-05-22T09:51:43.967Z,22.86
2017-05-22T09:54:10.311Z,22.72
2017-05-22T09:56:36.637Z,22.96
2017-05-22T09:59:02.976Z,22.76
2017-05-22T10:01:29.321Z,22.60
2017-05-22T10:03:55.666Z,22.78
2017-05-22T10:06:22.039Z,22.62
2017-05-22T10:08:48.369Z,22.77
2017-05-22T10:11:14.690Z,22.46
2017-05-22T10:13:41.055Z,22.30
2017-05-22T10:16:07.381Z,22.17
2017-05-22T10:18:33.700Z,22.61
2017-05-22T10:21:00.064Z,22.96
2017-05-22T10:23:26.358Z,23.13
2017-05-22T10:25:52.717Z,22.87
2017-05-22T10:28:19.035Z,22.75
2017-05-22T10:30:45.376Z,22.73
2017-05-22T10:33:11.729Z,22.94
2017-05-22T10:35:38.062Z,22.84
2017-05-22T10:38:04.379Z,22.50
2017-05-22T10:40:30.733Z,22.98
2017-05-22T10:42:57.074Z,23.46
2017-05-22T10:45:23.407Z,22.60
2017-05-22T10:47:50.043Z,23.55
2017-05-22T10:50:16.355Z,23.39
2017-05-22T10:52:42.735Z,24.19
2017-05-22T10:55:09.127Z,24.14
2017-05-22T10:57:35.520Z,23.28
2017-05-22T11:00:01.903Z,23.01
2017-05-22T11:02:28.284Z,23.34
2017-05-22T11:04:54.675Z,23.26
2017-05-22T11:07:21.020Z,23.94
2017-05-22T11:09:47.323Z,24.15
2017-05-22T11:12:13.639Z,23.37
2017-05-22T11:14:39.994Z,23.45
2017-05-22T11:17:06.329Z,23.61
2017-05-22T11:19:32.684Z,23.95
2017-05-22T11:21:59.022Z,23.41
2017-05-22T11:24:25.348Z,23.86
2017-05-22T11:26:51.701Z,24.68
2017-05-22T11:29:18.014Z,25.01
2017-05-22T11:31:44.390Z,26.16
2017-05-22T11:34:10.700Z,26.50
2017-05-22T11:36:37.014Z,25.83
2017-05-22T11:39:03.475Z,25.32
2017-05-22T11:41:29.833Z,25.69
2017-05-22T11:43:56.148Z,25.63
2017-05-22T11:46:22.466Z,26.42
2017-05-22T11:48:48.831Z,24.50
2017-05-22T11:51:15.135Z,24.08
2017-05-22T11:53:41.456Z,24.20
2017-05-22T11:56:07.782Z,24.11
2017-05-22T11:58:34.162Z,24.59
2017-05-22T12:01:00.533Z,24.75
2017-05-22T12:03:26.880Z,24.55
2017-05-22T12:05:53.194Z,24.47
2017-05-22T12:08:19.527Z,24.49
2017-05-22T12:10:45.854Z,24.26
2017-05-22T12:13:12.186Z,24.58
2017-05-22T12:15:38.511Z,24.49
2017-05-22T12:18:04.836Z,25.37
2017-05-22T12:20:31.211Z,25.23
2017-05-22T12:22:57.536Z,24.28
2017-05-22T12:25:23.883Z,25.49
2017-05-22T12:27:50.262Z,25.58
2017-05-22T12:30:16.600Z,25.04
2017-05-22T12:32:42.923Z,25.12
2017-05-22T12:35:09.248Z,25.48
2017-05-22T12:37:35.619Z,24.99
2017-05-22T12:40:01.955Z,25.37
2017-05-22T12:42:28.246Z,24.89
2017-05-22T12:44:54.575Z,25.11
2017-05-22T12:47:20.902Z,25.06
2017-05-22T12:49:47.236Z,25.16
2017-05-22T12:52:13.579Z,25.32
2017-05-22T12:54:39.890Z,24.90
2017-05-22T12:57:06.216Z,25.54
2017-05-22T12:59:32.539Z,26.35
2017-05-22T13:01:58.828Z,26.85
2017-05-22T13:04:25.149Z,27.96
2017-05-22T13:06:51.458Z,28.50
2017-05-22T13:09:17.777Z,28.61
2017-05-22T13:11:44.111Z,28.84
2017-05-22T13:14:10.426Z,28.77
2017-05-22T13:16:36.726Z,28.76
2017-05-22T13:19:03.067Z,28.46
2017-05-22T13:21:29.403Z,28.63
2017-05-22T13:23:55.736Z,28.22
2017-05-22T13:26:22.102Z,28.18
2017-05-22T13:28:48.421Z,28.03
2017-05-22T13:31:14.740Z,28.06
2017-05-22T13:33:41.063Z,28.37
2017-05-22T13:36:07.398Z,28.62
2017-05-22T13:38:33.714Z,28.26
2017-05-22T13:41:00.051Z,28.03
2017-05-22T13:43:26.373Z,28.54
2017-05-22T13:45:57.957Z,28.61
2017-05-22T13:48:24.293Z,28.27
2017-05-22T13:50:50.637Z,28.20
2017-05-22T13:53:16.958Z,28.83
2017-05-22T13:55:43.323Z,29.56
2017-05-22T13:58:09.663Z,30.68
2017-05-22T14:00:36.049Z,30.23
2017-05-22T14:03:02.386Z,30.68
2017-05-22T14:05:28.686Z,31.10
2017-05-22T14:07:55.036Z,30.64
2017-05-22T14:10:21.362Z,31.18
2017-05-22T14:12:47.680Z,31.01
2017-05-22T14:15:14.011Z,30.39
2017-05-22T14:17:40.380Z,30.93
2017-05-22T14:20:06.736Z,31.19
2017-05-22T14:22:33.093Z,31.55
2017-05-22T14:24:59.432Z,30.59
2017-05-22T14:27:25.771Z,30.22
2017-05-22T14:29:52.097Z,29.72
2017-05-22T14:32:18.438Z,29.62
2017-05-22T14:34:44.786Z,29.28
2017-05-22T14:37:11.106Z,29.21
2017-05-22T14:39:37.837Z,30.14
2017-05-22T14:42:04.176Z,29.53
2017-05-22T14:44:30.526Z,29.15
2017-05-22T14:46:56.845Z,30.04
2017-05-22T14:49:23.186Z,29.96
2017-05-22T14:51:49.542Z,29.85
2017-05-22T14:54:15.875Z,29.60
2017-05-22T14:56:42.434Z,29.50
2017-05-22T14:59:08.783Z,28.71
2017-05-22T15:01:35.126Z,28.57
2017-05-22T15:04:01.451Z,28.49
2017-05-22T15:06:27.786Z,27.45
2017-05-22T15:08:54.129Z,27.09
2017-05-22T15:11:20.430Z,27.83
2017-05-22T15:13:46.750Z,26.95
2017-05-22T15:16:13.050Z,27.72
2017-05-22T15:18:39.394Z,27.62
2017-05-22T15:21:05.790Z,27.01
2017-05-22T15:23:32.112Z,28.27
2017-05-22T15:25:58.445Z,28.09
2017-05-22T15:28:24.750Z,28.55
2017-05-22T15:30:51.065Z,27.51
2017-05-22T15:33:17.429Z,27.61
2017-05-22T15:35:43.745Z,27.44
2017-05-22T15:38:10.103Z,27.61
2017-05-22T15:40:36.440Z,27.72
2017-05-22T15:43:02.871Z,28.99
2017-05-22T15:45:29.259Z,28.10
2017-05-22T15:47:55.602Z,28.29
2017-05-22T15:50:21.945Z,28.36
2017-05-22T15:52:48.279Z,27.51
2017-05-22T15:55:14.625Z,27.27
2017-05-22T15:57:40.985Z,27.09
2017-05-22T16:00:07.318Z,27.09
2017-05-22T16:02:33.667Z,27.20
2017-05-22T16:05:00.005Z,27.02
2017-05-22T16:07:26.373Z,26.91
2017-05-22T16:09:52.694Z,26.61
2017-05-22T16:12:19.325Z,26.31
2017-05-22T16:14:46.426Z,26.05
2017-05-22T16:17:13.197Z,26.40
2017-05-22T16:19:39.843Z,26.68
2017-05-22T16:22:06.185Z,25.63
2017-05-22T16:24:32.567Z,26.01
2017-05-22T16:26:59.633Z,26.11
2017-05-22T16:29:25.990Z,26.27
2017-05-22T16:31:52.328Z,26.40
2017-05-22T16:34:18.644Z,26.54
2017-05-22T16:36:45.009Z,27.12
2017-05-22T16:39:11.340Z,26.99
2017-05-22T16:41:37.917Z,26.81
2017-05-22T16:44:04.294Z,27.02
2017-05-22T16:46:30.639Z,27.01
2017-05-22T16:48:57.351Z,27.27
2017-05-22T16:51:23.789Z,27.14
2017-05-22T16:53:50.119Z,26.94
2017-05-22T16:56:16.486Z,26.85
2017-05-22T16:58:42.860Z,26.74
2017-05-22T17:01:09.179Z,26.74
2017-05-22T17:03:35.482Z,26.16
2017-05-22T17:06:01.806Z,26.49
2017-05-22T17:08:28.139Z,26.47
2017-05-22T17:10:54.507Z,25.17
2017-05-22T17:13:20.825Z,25.85
2017-05-22T17:15:47.190Z,26.25
2017-05-22T17:18:13.528Z,26.08
2017-05-22T17:20:39.881Z,25.82
2017-05-22T17:23:06.200Z,25.95
2017-05-22T17:25:32.585Z,25.66
2017-05-22T17:27:58.896Z,25.86
2017-05-22T17:30:25.233Z,25.53
2017-05-22T17:32:51.586Z,25.71
2017-05-22T17:35:17.919Z,25.67
2017-05-22T17:37:44.270Z,25.78
2017-05-22T17:40:10.618Z,25.17
2017-05-22T17:42:36.957Z,25.41
2017-05-22T17:45:03.331Z,25.57
2017-05-22T17:47:29.667Z,25.30
2017-05-22T17:49:56.005Z,25.31
2017-05-22T17:52:22.362Z,25.09
2017-05-22T17:54:48.740Z,25.21
2017-05-22T17:57:15.079Z,25.08
2017-05-22T17:59:41.467Z,25.03
2017-05-22T18:02:07.825Z,24.96
2017-05-22T18:04:34.171Z,24.52
2017-05-22T18:07:00.507Z,24.48
2017-05-22T18:09:26.830Z,24.65
2017-05-22T18:11:53.191Z,24.61
2017-05-22T18:14:19.511Z,24.81
2017-05-22T18:16:45.835Z,24.45
2017-05-22T18:19:12.197Z,24.40
2017-05-22T18:21:38.532Z,24.45
2017-05-22T18:24:04.875Z,24.40
2017-05-22T18:26:31.210Z,23.86
2017-05-22T18:28:57.556Z,23.81
2017-05-22T18:31:23.862Z,23.76
2017-05-22T18:33:50.239Z,23.80
2017-05-22T18:36:16.658Z,23.71
2017-05-22T18:38:42.998Z,23.57
2017-05-22T18:41:09.346Z,23.36
2017-05-22T18:43:35.693Z,23.70
2017-05-22T18:46:02.059Z,23.79
2017-05-22T18:48:28.415Z,23.83
2017-05-22T18:50:54.805Z,23.76
2017-05-22T18:53:21.166Z,23.72
2017-05-22T18:55:47.476Z,23.62
2017-05-22T18:58:13.835Z,23.32
2017-05-22T19:00:40.221Z,23.54
2017-05-22T19:03:06.562Z,23.51
2017-05-22T19:05:32.909Z,23.18
2017-05-22T19:07:59.263Z,23.14
2017-05-22T19:10:25.656Z,22.98
2017-05-22T19:12:52.295Z,23.12
2017-05-22T19:15:19.022Z,23.04
2017-05-22T19:17:46.500Z,22.73
2017-05-22T19:20:13.902Z,22.80
2017-05-22T19:22:40.269Z,22.83
2017-05-22T19:25:06.984Z,22.95
2017-05-22T19:27:33.361Z,22.99
2017-05-22T19:30:00.244Z,22.92
2017-05-22T19:32:26.938Z,22.56
2017-05-22T19:34:53.317Z,22.85
2017-05-22T19:37:19.702Z,22.60
2017-05-22T19:39:46.114Z,22.07
2017-05-22T19:42:13.079Z,21.52
2017-05-22T19:44:40.407Z,21.11
2017-05-22T19:47:07.263Z,22.15
2017-05-22T19:49:33.753Z,21.29
2017-05-22T19:52:00.289Z,20.86
2017-05-22T19:54:26.724Z,20.87
2017-05-22T19:56:53.147Z,20.27
2017-05-22T19:59:24.578Z,20.19
2017-05-22T20:01:54.679Z,20.31
2017-05-22T20:04:31.174Z,21.32
2017-05-22T20:06:58.863Z,20.76
2017-05-22T20:09:25.362Z,20.54
2017-05-22T20:11:51.730Z,20.86
2017-05-22T20:16:55.340Z,20.35
2017-05-22T20:19:21.751Z,19.66
2017-05-22T20:21:48.333Z,19.53
2017-05-22T20:24:14.770Z,19.40
2017-05-22T20:26:41.194Z,20.49
2017-05-22T20:29:08.202Z,20.58
2017-05-22T20:31:34.534Z,20.86
2017-05-22T20:34:00.909Z,20.40
2017-05-22T20:36:27.262Z,20.00
2017-05-22T20:38:53.802Z,19.65
2017-05-22T20:41:20.295Z,20.57
2017-05-22T20:43:46.993Z,19.36
2017-05-22T20:46:13.474Z,19.13
2017-05-22T20:48:40.127Z,19.41
2017-05-22T20:51:06.470Z,20.69
2017-05-22T20:53:33.190Z,20.65
2017-05-22T20:56:01.183Z,20.88
2017-05-22T20:58:27.648Z,20.90
2017-05-22T21:00:54.147Z,20.18
2017-05-22T21:03:20.642Z,19.49
2017-05-22T21:05:47.242Z,18.65
2017-05-22T21:08:13.599Z,18.15
2017-05-22T21:10:39.940Z,18.77
2017-05-22T21:13:07.005Z,18.13
2017-05-22T21:15:33.385Z,19.09
2017-05-22T21:17:59.723Z,19.08
2017-05-22T21:20:26.074Z,19.58
2017-05-22T21:22:52.438Z,19.54
2017-05-22T21:25:19.022Z,19.21
2017-05-22T21:27:45.540Z,18.71
2017-05-22T21:30:12.424Z,19.09
2017-05-22T21:32:39.547Z,20.23
2017-05-22T21:35:05.857Z,19.71
2017-05-22T21:37:33.897Z,20.12
2017-05-22T21:40:02.503Z,19.06
2017-05-22T21:42:28.890Z,19.31
2017-05-22T21:44:55.207Z,18.06
2017-05-22T21:47:21.571Z,17.93
2017-05-22T21:49:47.896Z,17.85
2017-05-22T21:52:14.295Z,18.40
2017-05-22T21:54:40.649Z,18.68
2017-05-22T21:57:07.007Z,18.87
2017-05-22T21:59:33.340Z,19.78
2017-05-22T22:02:01.256Z,19.64
2017-05-22T22:04:27.747Z,18.54
2017-05-22T22:06:54.142Z,19.41
2017-05-22T22:09:20.482Z,17.79
2017-05-22T22:11:46.853Z,17.60
2017-05-22T22:14:13.188Z,18.28
2017-05-22T22:16:39.592Z,18.92
2017-05-22T22:19:05.937Z,19.78
2017-05-22T22:21:32.979Z,19.74
2017-05-22T22:24:00.063Z,19.30
2017-05-22T22:26:26.950Z,19.24
2017-05-22T22:28:54.239Z,19.35
2017-05-22T22:31:20.652Z,19.39
2017-05-22T22:33:46.980Z,19.32
2017-05-22T22:36:13.328Z,18.80
2017-05-22T22:38:39.674Z,18.74
2017-05-22T22:41:06.026Z,19.37
2017-05-22T22:43:32.335Z,19.10
2017-05-22T22:45:58.666Z,19.26
2017-05-22T22:48:25.082Z,18.73
2017-05-22T22:50:51.417Z,18.16
2017-05-22T22:53:17.762Z,17.89
2017-05-22T22:55:44.161Z,17.47
2017-05-22T22:58:10.590Z,16.94
2017-05-22T23:00:36.895Z,17.81
2017-05-22T23:03:03.229Z,17.64
2017-05-22T23:05:29.570Z,17.63
2017-05-22T23:07:55.888Z,18.06
2017-05-22T23:10:22.201Z,18.41
2017-05-22T23:12:48.540Z,18.00
2017-05-22T23:15:14.880Z,18.43
2017-05-22T23:17:41.268Z,18.32
2017-05-22T23:20:07.599Z,18.71
2017-05-22T23:22:33.941Z,17.79
2017-05-22T23:25:00.263Z,17.29
2017-05-22T23:27:26.618Z,17.06
2017-05-22T23:29:52.963Z,16.98
2017-05-22T23:32:19.322Z,16.70
2017-05-22T23:34:45.668Z,17.00
2017-05-22T23:37:12.079Z,16.51
2017-05-22T23:39:38.410Z,16.71
2017-05-22T23:42:04.771Z,17.24
2017-05-22T23:44:31.087Z,16.58
2017-05-22T23:46:57.472Z,17.58
2017-05-22T23:49:23.826Z,17.06
2017-05-22T23:51:50.163Z,17.29
2017-05-22T23:54:16.497Z,17.01
2017-05-22T23:56:42.894Z,18.27
2017-05-22T23:59:09.189Z,17.60
